sensor_id;sensor_type;location;lat;lon;timestamp;P1;durP1;ratioP1;P2;durP2;ratioP2
32242;SDS011;18731;42.830;24.390;2023-04-25T03:01:29;6.28;;;2.10;;
32242;SDS011;18731;42.830;24.390;2023-04-25T03:03:55;12.05;;;2.05;;
32242;SDS011;18731;42.830;24.390;2023-04-25T03:06:20;10.57;;;2.38;;
32242;SDS011;18731;42.830;24.390;2023-04-25T03:08:46;4.72;;;2.50;;
32242;SDS011;18731;42.830;24.390;2023-04-25T03:11:11;2.47;;;1.77;;
32242;SDS011;18731;42.830;24.390;2023-04-25T03:13:37;6.78;;;2.70;;
32242;SDS011;18731;42.830;24.390;2023-04-25T03:16:03;5.85;;;1.60;;
32242;SDS011;18731;42.830;24.390;2023-04-25T03:18:29;7.38;;;1.83;;
32242;SDS011;18731;42.830;24.390;2023-04-25T03:20:55;7.18;;;2.50;;
32242;SDS011;18731;42.830;24.390;2023-04-25T03:23:21;5.88;;;2.05;;
32242;SDS011;18731;42.830;24.390;2023-04-25T03:25:47;9.00;;;2.20;;
32242;SDS011;18731;42.830;24.390;2023-04-25T03:28:12;8.50;;;4.00;;
32242;SDS011;18731;42.830;24.390;2023-04-25T03:30:38;11.82;;;3.88;;
32242;SDS011;18731;42.830;24.390;2023-04-25T03:33:04;6.47;;;3.30;;
32242;SDS011;18731;42.830;24.390;2023-04-25T03:35:30;9.40;;;2.42;;
32242;SDS011;18731;42.830;24.390;2023-04-25T03:37:55;4.97;;;2.40;;
32242;SDS011;18731;42.830;24.390;2023-04-25T03:40:21;6.50;;;2.50;;
32242;SDS011;18731;42.830;24.390;2023-04-25T03:42:47;8.02;;;2.47;;
32242;SDS011;18731;42.830;24.390;2023-04-25T03:45:12;10.80;;;3.92;;
32242;SDS011;18731;42.830;24.390;2023-04-25T03:47:38;10.38;;;5.55;;
32242;SDS011;18731;42.830;24.390;2023-04-25T03:50:03;6.25;;;3.45;;
32242;SDS011;18731;42.830;24.390;2023-04-25T03:52:29;9.88;;;4.80;;
32242;SDS011;18731;42.830;24.390;2023-04-25T03:54:55;14.23;;;3.17;;
32242;SDS011;18731;42.830;24.390;2023-04-25T03:57:21;10.77;;;4.82;;
32242;SDS011;18731;42.830;24.390;2023-04-25T03:59:46;21.52;;;9.30;;
32242;SDS011;18731;42.830;24.390;2023-04-25T04:02:12;10.15;;;5.10;;
32242;SDS011;18731;42.830;24.390;2023-04-25T04:04:37;11.15;;;4.97;;
32242;SDS011;18731;42.830;24.390;2023-04-25T04:07:03;9.73;;;3.58;;
32242;SDS011;18731;42.830;24.390;2023-04-25T04:09:29;6.70;;;4.18;;
32242;SDS011;18731;42.830;24.390;2023-04-25T04:11:54;7.65;;;4.20;;
32242;SDS011;18731;42.830;24.390;2023-04-25T04:14:20;9.63;;;4.57;;
32242;SDS011;18731;42.830;24.390;2023-04-25T04:16:45;14.82;;;5.35;;
32242;SDS011;18731;42.830;24.390;2023-04-25T04:19:11;12.80;;;6.00;;
32242;SDS011;18731;42.830;24.390;2023-04-25T04:21:37;15.02;;;8.93;;
32242;SDS011;18731;42.830;24.390;2023-04-25T04:24:02;19.42;;;11.98;;
32242;SDS011;18731;42.830;24.390;2023-04-25T04:26:28;15.02;;;8.68;;
32242;SDS011;18731;42.830;24.390;2023-04-25T04:28:54;12.45;;;7.25;;
32242;SDS011;18731;42.830;24.390;2023-04-25T04:31:20;15.65;;;6.30;;
32242;SDS011;18731;42.830;24.390;2023-04-25T04:33:46;22.65;;;11.82;;
32242;SDS011;18731;42.830;24.390;2023-04-25T04:36:12;21.92;;;8.20;;
32242;SDS011;18731;42.830;24.390;2023-04-25T04:38:39;8.68;;;5.85;;
32242;SDS011;18731;42.830;24.390;2023-04-25T04:41:05;15.35;;;7.47;;
32242;SDS011;18731;42.830;24.390;2023-04-25T04:43:31;40.75;;;14.73;;
32242;SDS011;18731;42.830;24.390;2023-04-25T04:46:00;24.13;;;11.02;;
32242;SDS011;18731;42.830;24.390;2023-04-25T04:48:26;28.52;;;11.98;;
32242;SDS011;18731;42.830;24.390;2023-04-25T04:50:51;12.98;;;7.90;;
32242;SDS011;18731;42.830;24.390;2023-04-25T04:53:17;12.55;;;7.70;;
32242;SDS011;18731;42.830;24.390;2023-04-25T04:55:43;14.88;;;7.30;;
32242;SDS011;18731;42.830;24.390;2023-04-25T04:58:09;16.30;;;7.65;;
32242;SDS011;18731;42.830;24.390;2023-04-25T05:00:34;25.50;;;7.05;;
32242;SDS011;18731;42.830;24.390;2023-04-25T05:03:00;14.05;;;5.95;;
32242;SDS011;18731;42.830;24.390;2023-04-25T05:05:26;10.75;;;6.35;;
32242;SDS011;18731;42.830;24.390;2023-04-25T05:07:51;16.17;;;7.65;;
32242;SDS011;18731;42.830;24.390;2023-04-25T05:10:18;9.65;;;5.32;;
32242;SDS011;18731;42.830;24.390;2023-04-25T05:12:44;7.45;;;5.45;;
32242;SDS011;18731;42.830;24.390;2023-04-25T05:15:10;8.50;;;4.75;;
32242;SDS011;18731;42.830;24.390;2023-04-25T05:17:36;11.23;;;5.55;;
32242;SDS011;18731;42.830;24.390;2023-04-25T05:20:02;9.57;;;5.78;;
32242;SDS011;18731;42.830;24.390;2023-04-25T05:22:30;5.95;;;4.30;;
32242;SDS011;18731;42.830;24.390;2023-04-25T05:24:56;9.50;;;4.45;;
32242;SDS011;18731;42.830;24.390;2023-04-25T05:27:22;7.63;;;5.10;;
32242;SDS011;18731;42.830;24.390;2023-04-25T05:29:48;16.85;;;10.20;;
32242;SDS011;18731;42.830;24.390;2023-04-25T05:32:14;29.58;;;16.73;;
32242;SDS011;18731;42.830;24.390;2023-04-25T05:34:39;17.35;;;11.80;;
32242;SDS011;18731;42.830;24.390;2023-04-25T05:37:05;13.82;;;7.07;;
32242;SDS011;18731;42.830;24.390;2023-04-25T05:39:31;16.55;;;11.05;;
32242;SDS011;18731;42.830;24.390;2023-04-25T05:41:57;14.20;;;8.55;;
32242;SDS011;18731;42.830;24.390;2023-04-25T05:44:22;13.40;;;9.15;;
32242;SDS011;18731;42.830;24.390;2023-04-25T05:46:48;14.02;;;8.15;;
32242;SDS011;18731;42.830;24.390;2023-04-25T05:49:14;14.95;;;7.95;;
32242;SDS011;18731;42.830;24.390;2023-04-25T05:51:40;8.20;;;5.90;;
32242;SDS011;18731;42.830;24.390;2023-04-25T05:54:05;5.88;;;4.50;;
32242;SDS011;18731;42.830;24.390;2023-04-25T05:56:31;6.57;;;3.47;;
32242;SDS011;18731;42.830;24.390;2023-04-25T05:58:57;10.30;;;7.13;;
32242;SDS011;18731;42.830;24.390;2023-04-25T06:01:23;7.65;;;3.95;;
32242;SDS011;18731;42.830;24.390;2023-04-25T06:03:49;6.25;;;3.30;;
32242;SDS011;18731;42.830;24.390;2023-04-25T06:06:16;3.13;;;2.83;;
32242;SDS011;18731;42.830;24.390;2023-04-25T06:08:43;4.25;;;2.80;;
32242;SDS011;18731;42.830;24.390;2023-04-25T06:11:09;4.35;;;3.08;;
32242;SDS011;18731;42.830;24.390;2023-04-25T06:13:34;5.97;;;2.60;;
32242;SDS011;18731;42.830;24.390;2023-04-25T06:16:00;5.60;;;2.65;;
32242;SDS011;18731;42.830;24.390;2023-04-25T06:18:25;4.30;;;2.72;;
32242;SDS011;18731;42.830;24.390;2023-04-25T06:20:51;5.47;;;2.70;;
32242;SDS011;18731;42.830;24.390;2023-04-25T06:23:17;9.05;;;3.78;;
32242;SDS011;18731;42.830;24.390;2023-04-25T06:25:42;10.00;;;5.15;;
32242;SDS011;18731;42.830;24.390;2023-04-25T06:28:08;6.35;;;3.97;;
32242;SDS011;18731;42.830;24.390;2023-04-25T06:30:34;6.35;;;3.85;;
32242;SDS011;18731;42.830;24.390;2023-04-25T06:32:59;3.95;;;3.20;;
32242;SDS011;18731;42.830;24.390;2023-04-25T06:35:25;7.65;;;2.88;;
32242;SDS011;18731;42.830;24.390;2023-04-25T06:37:50;8.63;;;4.32;;
32242;SDS011;18731;42.830;24.390;2023-04-25T06:40:16;9.68;;;3.90;;
32242;SDS011;18731;42.830;24.390;2023-04-25T06:42:42;7.15;;;3.70;;
32242;SDS011;18731;42.830;24.390;2023-04-25T06:45:08;6.20;;;3.35;;
32242;SDS011;18731;42.830;24.390;2023-04-25T06:47:34;4.72;;;3.10;;
32242;SDS011;18731;42.830;24.390;2023-04-25T06:50:00;4.45;;;3.42;;
32242;SDS011;18731;42.830;24.390;2023-04-25T06:52:26;5.30;;;2.65;;
32242;SDS011;18731;42.830;24.390;2023-04-25T06:54:51;4.05;;;2.55;;
32242;SDS011;18731;42.830;24.390;2023-04-25T06:57:17;4.97;;;2.65;;
32242;SDS011;18731;42.830;24.390;2023-04-25T06:59:43;8.80;;;3.40;;
32242;SDS011;18731;42.830;24.390;2023-04-25T07:02:08;8.13;;;3.42;;
32242;SDS011;18731;42.830;24.390;2023-04-25T07:04:34;5.00;;;3.58;;
32242;SDS011;18731;42.830;24.390;2023-04-25T07:07:00;5.70;;;3.88;;
32242;SDS011;18731;42.830;24.390;2023-04-25T07:09:27;5.82;;;4.10;;
32242;SDS011;18731;42.830;24.390;2023-04-25T07:11:53;4.82;;;3.63;;
32242;SDS011;18731;42.830;24.390;2023-04-25T07:14:19;6.15;;;4.30;;
32242;SDS011;18731;42.830;24.390;2023-04-25T07:16:45;5.88;;;4.13;;
32242;SDS011;18731;42.830;24.390;2023-04-25T07:19:11;6.03;;;4.07;;
32242;SDS011;18731;42.830;24.390;2023-04-25T07:21:37;7.55;;;3.97;;
32242;SDS011;18731;42.830;24.390;2023-04-25T07:24:02;10.93;;;3.67;;
32242;SDS011;18731;42.830;24.390;2023-04-25T07:26:28;5.15;;;4.00;;
32242;SDS011;18731;42.830;24.390;2023-04-25T07:28:54;6.03;;;3.88;;
32242;SDS011;18731;42.830;24.390;2023-04-25T07:31:20;9.27;;;4.45;;
32242;SDS011;18731;42.830;24.390;2023-04-25T07:33:46;11.38;;;5.20;;
32242;SDS011;18731;42.830;24.390;2023-04-25T07:36:12;6.15;;;4.47;;
32242;SDS011;18731;42.830;24.390;2023-04-25T07:38:38;6.53;;;4.25;;
32242;SDS011;18731;42.830;24.390;2023-04-25T07:41:04;6.00;;;4.72;;
32242;SDS011;18731;42.830;24.390;2023-04-25T07:43:30;12.57;;;6.15;;
32242;SDS011;18731;42.830;24.390;2023-04-25T07:45:56;8.90;;;6.20;;
32242;SDS011;18731;42.830;24.390;2023-04-25T07:48:22;9.95;;;6.47;;
32242;SDS011;18731;42.830;24.390;2023-04-25T07:50:48;10.20;;;6.13;;
32242;SDS011;18731;42.830;24.390;2023-04-25T07:53:14;6.63;;;5.65;;
32242;SDS011;18731;42.830;24.390;2023-04-25T07:55:40;8.82;;;5.03;;
32242;SDS011;18731;42.830;24.390;2023-04-25T07:58:06;6.80;;;4.78;;
32242;SDS011;18731;42.830;24.390;2023-04-25T08:00:32;11.13;;;5.32;;
32242;SDS011;18731;42.830;24.390;2023-04-25T08:02:58;6.65;;;4.63;;
32242;SDS011;18731;42.830;24.390;2023-04-25T08:05:24;8.30;;;4.60;;
32242;SDS011;18731;42.830;24.390;2023-04-25T08:07:49;7.90;;;5.88;;
32242;SDS011;18731;42.830;24.390;2023-04-25T08:10:15;7.35;;;5.72;;
32242;SDS011;18731;42.830;24.390;2023-04-25T08:12:41;10.10;;;6.10;;
32242;SDS011;18731;42.830;24.390;2023-04-25T08:15:07;7.53;;;4.78;;
32242;SDS011;18731;42.830;24.390;2023-04-25T08:17:33;10.07;;;5.53;;
32242;SDS011;18731;42.830;24.390;2023-04-25T08:19:59;4.70;;;3.90;;
32242;SDS011;18731;42.830;24.390;2023-04-25T08:22:24;10.65;;;4.50;;
32242;SDS011;18731;42.830;24.390;2023-04-25T08:24:50;5.03;;;3.95;;
32242;SDS011;18731;42.830;24.390;2023-04-25T08:27:17;10.40;;;6.18;;
32242;SDS011;18731;42.830;24.390;2023-04-25T08:29:44;12.32;;;6.70;;
32242;SDS011;18731;42.830;24.390;2023-04-25T08:32:09;5.90;;;3.83;;
32242;SDS011;18731;42.830;24.390;2023-04-25T08:34:35;3.67;;;2.90;;
32242;SDS011;18731;42.830;24.390;2023-04-25T08:37:03;4.35;;;3.00;;
32242;SDS011;18731;42.830;24.390;2023-04-25T08:39:29;10.45;;;4.40;;
32242;SDS011;18731;42.830;24.390;2023-04-25T08:41:55;7.88;;;4.57;;
32242;SDS011;18731;42.830;24.390;2023-04-25T08:44:21;5.63;;;3.55;;
32242;SDS011;18731;42.830;24.390;2023-04-25T08:46:49;6.75;;;3.33;;
32242;SDS011;18731;42.830;24.390;2023-04-25T08:49:16;4.65;;;2.80;;
32242;SDS011;18731;42.830;24.390;2023-04-25T08:51:46;3.08;;;2.10;;
32242;SDS011;18731;42.830;24.390;2023-04-25T08:54:12;6.75;;;2.45;;
32242;SDS011;18731;42.830;24.390;2023-04-25T08:56:45;3.45;;;1.70;;
32242;SDS011;18731;42.830;24.390;2023-04-25T08:59:13;2.25;;;1.77;;
32242;SDS011;18731;42.830;24.390;2023-04-25T09:01:39;2.67;;;2.25;;
32242;SDS011;18731;42.830;24.390;2023-04-25T09:04:05;3.20;;;2.20;;
32242;SDS011;18731;42.830;24.390;2023-04-25T09:06:31;3.55;;;2.05;;
32242;SDS011;18731;42.830;24.390;2023-04-25T09:09:03;7.38;;;2.70;;
32242;SDS011;18731;42.830;24.390;2023-04-25T09:11:30;3.15;;;2.08;;
32242;SDS011;18731;42.830;24.390;2023-04-25T09:14:14;3.75;;;3.13;;
32242;SDS011;18731;42.830;24.390;2023-04-25T09:17:02;11.77;;;2.70;;
32242;SDS011;18731;42.830;24.390;2023-04-25T09:19:33;4.13;;;1.90;;
32242;SDS011;18731;42.830;24.390;2023-04-25T09:22:01;3.17;;;1.50;;
32242;SDS011;18731;42.830;24.390;2023-04-25T09:24:32;3.97;;;1.75;;
32242;SDS011;18731;42.830;24.390;2023-04-25T09:27:08;3.63;;;1.92;;
32242;SDS011;18731;42.830;24.390;2023-04-25T09:29:36;3.10;;;1.52;;
32242;SDS011;18731;42.830;24.390;2023-04-25T09:32:19;1.50;;;1.40;;
32242;SDS011;18731;42.830;24.390;2023-04-25T09:34:49;7.53;;;1.90;;
32242;SDS011;18731;42.830;24.390;2023-04-25T09:37:31;1.73;;;1.52;;
32242;SDS011;18731;42.830;24.390;2023-04-25T09:39:59;1.70;;;1.50;;
32242;SDS011;18731;42.830;24.390;2023-04-25T09:42:28;3.22;;;1.63;;
32242;SDS011;18731;42.830;24.390;2023-04-25T09:44:56;5.32;;;2.22;;
32242;SDS011;18731;42.830;24.390;2023-04-25T09:47:24;1.98;;;1.50;;
32242;SDS011;18731;42.830;24.390;2023-04-25T09:49:52;3.38;;;1.50;;
32242;SDS011;18731;42.830;24.390;2023-04-25T09:52:20;3.00;;;1.65;;
32242;SDS011;18731;42.830;24.390;2023-04-25T09:54:47;1.50;;;1.35;;
32242;SDS011;18731;42.830;24.390;2023-04-25T09:57:15;1.88;;;1.70;;
32242;SDS011;18731;42.830;24.390;2023-04-25T09:59:49;2.75;;;2.40;;
32242;SDS011;18731;42.830;24.390;2023-04-25T10:02:18;2.55;;;1.65;;
32242;SDS011;18731;42.830;24.390;2023-04-25T10:04:49;4.80;;;1.60;;
32242;SDS011;18731;42.830;24.390;2023-04-25T10:07:20;4.43;;;1.63;;
32242;SDS011;18731;42.830;24.390;2023-04-25T10:10:00;2.75;;;1.75;;
32242;SDS011;18731;42.830;24.390;2023-04-25T10:12:28;2.83;;;2.10;;
32242;SDS011;18731;42.830;24.390;2023-04-25T10:14:56;3.95;;;1.50;;
32242;SDS011;18731;42.830;24.390;2023-04-25T10:17:23;4.25;;;2.30;;
32242;SDS011;18731;42.830;24.390;2023-04-25T10:19:48;1.92;;;1.50;;
32242;SDS011;18731;42.830;24.390;2023-04-25T10:22:17;12.88;;;3.83;;
32242;SDS011;18731;42.830;24.390;2023-04-25T10:24:48;4.00;;;2.20;;
32242;SDS011;18731;42.830;24.390;2023-04-25T10:27:16;4.10;;;2.20;;
32242;SDS011;18731;42.830;24.390;2023-04-25T10:29:42;2.25;;;1.92;;
32242;SDS011;18731;42.830;24.390;2023-04-25T10:32:10;4.38;;;2.08;;
32242;SDS011;18731;42.830;24.390;2023-04-25T10:37:12;5.00;;;2.00;;
32242;SDS011;18731;42.830;24.390;2023-04-25T10:39:39;4.25;;;1.77;;
32242;SDS011;18731;42.830;24.390;2023-04-25T10:42:06;3.90;;;1.80;;
32242;SDS011;18731;42.830;24.390;2023-04-25T10:44:38;9.98;;;2.00;;
32242;SDS011;18731;42.830;24.390;2023-04-25T10:47:06;11.27;;;2.60;;
32242;SDS011;18731;42.830;24.390;2023-04-25T10:49:34;9.35;;;2.78;;
32242;SDS011;18731;42.830;24.390;2023-04-25T10:52:13;12.60;;;3.65;;
32242;SDS011;18731;42.830;24.390;2023-04-25T10:54:46;12.55;;;3.50;;
32242;SDS011;18731;42.830;24.390;2023-04-25T11:00:09;9.63;;;3.67;;
32242;SDS011;18731;42.830;24.390;2023-04-25T11:02:44;19.73;;;4.22;;
32242;SDS011;18731;42.830;24.390;2023-04-25T11:07:51;24.15;;;3.78;;
32242;SDS011;18731;42.830;24.390;2023-04-25T11:10:19;13.35;;;4.15;;
32242;SDS011;18731;42.830;24.390;2023-04-25T11:12:45;18.08;;;3.85;;
32242;SDS011;18731;42.830;24.390;2023-04-25T11:15:12;10.68;;;3.88;;
32242;SDS011;18731;42.830;24.390;2023-04-25T11:17:38;17.08;;;4.68;;
32242;SDS011;18731;42.830;24.390;2023-04-25T11:20:06;10.30;;;3.35;;
32242;SDS011;18731;42.830;24.390;2023-04-25T11:22:37;6.78;;;2.92;;
32242;SDS011;18731;42.830;24.390;2023-04-25T11:25:06;5.88;;;2.60;;
32242;SDS011;18731;42.830;24.390;2023-04-25T11:27:33;10.00;;;2.00;;
32242;SDS011;18731;42.830;24.390;2023-04-25T11:30:20;4.90;;;1.90;;
32242;SDS011;18731;42.830;24.390;2023-04-25T11:32:46;3.17;;;1.73;;
32242;SDS011;18731;42.830;24.390;2023-04-25T11:35:13;11.25;;;2.10;;
32242;SDS011;18731;42.830;24.390;2023-04-25T11:37:39;4.05;;;1.70;;
32242;SDS011;18731;42.830;24.390;2023-04-25T11:40:06;6.40;;;1.70;;
32242;SDS011;18731;42.830;24.390;2023-04-25T11:42:33;7.47;;;1.90;;
32242;SDS011;18731;42.830;24.390;2023-04-25T11:44:59;6.82;;;1.67;;
32242;SDS011;18731;42.830;24.390;2023-04-25T11:47:29;2.22;;;1.63;;
32242;SDS011;18731;42.830;24.390;2023-04-25T11:49:57;4.75;;;1.63;;
32242;SDS011;18731;42.830;24.390;2023-04-25T11:52:37;3.60;;;1.65;;
32242;SDS011;18731;42.830;24.390;2023-04-25T11:55:12;1.40;;;1.30;;
32242;SDS011;18731;42.830;24.390;2023-04-25T11:57:40;2.25;;;1.80;;
32242;SDS011;18731;42.830;24.390;2023-04-25T12:00:24;2.83;;;1.60;;
32242;SDS011;18731;42.830;24.390;2023-04-25T12:02:53;4.68;;;1.92;;
32242;SDS011;18731;42.830;24.390;2023-04-25T12:05:23;2.72;;;1.60;;
32242;SDS011;18731;42.830;24.390;2023-04-25T12:07:50;3.65;;;1.58;;
32242;SDS011;18731;42.830;24.390;2023-04-25T12:10:16;3.15;;;1.60;;
32242;SDS011;18731;42.830;24.390;2023-04-25T12:12:45;13.05;;;2.00;;
32242;SDS011;18731;42.830;24.390;2023-04-25T12:17:46;2.58;;;1.90;;
32242;SDS011;18731;42.830;24.390;2023-04-25T12:20:13;3.10;;;2.00;;
32242;SDS011;18731;42.830;24.390;2023-04-25T12:22:45;8.07;;;2.67;;
32242;SDS011;18731;42.830;24.390;2023-04-25T12:28:16;3.67;;;1.95;;
32242;SDS011;18731;42.830;24.390;2023-04-25T12:31:02;1.50;;;1.40;;
32242;SDS011;18731;42.830;24.390;2023-04-25T12:33:30;5.53;;;1.48;;
32242;SDS011;18731;42.830;24.390;2023-04-25T12:35:57;0.93;;;0.75;;
32242;SDS011;18731;42.830;24.390;2023-04-25T12:38:27;1.95;;;1.20;;
32242;SDS011;18731;42.830;24.390;2023-04-25T12:43:25;1.42;;;0.95;;
32242;SDS011;18731;42.830;24.390;2023-04-25T12:45:51;0.80;;;0.80;;
32242;SDS011;18731;42.830;24.390;2023-04-25T12:48:19;1.58;;;1.00;;
32242;SDS011;18731;42.830;24.390;2023-04-25T12:50:45;4.28;;;1.00;;
32242;SDS011;18731;42.830;24.390;2023-04-25T12:53:14;5.75;;;1.00;;
32242;SDS011;18731;42.830;24.390;2023-04-25T12:55:42;1.63;;;0.75;;
32242;SDS011;18731;42.830;24.390;2023-04-25T12:58:11;1.35;;;0.90;;
32242;SDS011;18731;42.830;24.390;2023-04-25T13:00:36;3.22;;;0.80;;
32242;SDS011;18731;42.830;24.390;2023-04-25T13:03:02;0.80;;;0.80;;
32242;SDS011;18731;42.830;24.390;2023-04-25T13:05:29;2.25;;;0.70;;
32242;SDS011;18731;42.830;24.390;2023-04-25T13:07:55;1.15;;;0.85;;
32242;SDS011;18731;42.830;24.390;2023-04-25T13:10:21;0.82;;;0.80;;
32242;SDS011;18731;42.830;24.390;2023-04-25T13:12:46;1.65;;;0.88;;
32242;SDS011;18731;42.830;24.390;2023-04-25T13:15:12;1.75;;;0.88;;
32242;SDS011;18731;42.830;24.390;2023-04-25T13:17:40;0.80;;;0.77;;
32242;SDS011;18731;42.830;24.390;2023-04-25T13:20:07;3.15;;;0.80;;
32242;SDS011;18731;42.830;24.390;2023-04-25T13:22:38;2.10;;;0.90;;
32242;SDS011;18731;42.830;24.390;2023-04-25T13:25:05;1.05;;;0.98;;
32242;SDS011;18731;42.830;24.390;2023-04-25T13:27:32;2.67;;;1.02;;
32242;SDS011;18731;42.830;24.390;2023-04-25T13:29:59;3.00;;;0.93;;
32242;SDS011;18731;42.830;24.390;2023-04-25T13:32:26;1.08;;;1.00;;
32242;SDS011;18731;42.830;24.390;2023-04-25T13:34:52;2.90;;;0.80;;
32242;SDS011;18731;42.830;24.390;2023-04-25T13:37:18;2.65;;;1.00;;
32242;SDS011;18731;42.830;24.390;2023-04-25T13:39:44;3.13;;;0.80;;
32242;SDS011;18731;42.830;24.390;2023-04-25T13:42:09;1.08;;;0.65;;
32242;SDS011;18731;42.830;24.390;2023-04-25T13:44:36;2.53;;;0.82;;
32242;SDS011;18731;42.830;24.390;2023-04-25T13:47:01;2.05;;;0.70;;
32242;SDS011;18731;42.830;24.390;2023-04-25T13:49:28;1.92;;;0.60;;
32242;SDS011;18731;42.830;24.390;2023-04-25T13:51:53;1.13;;;0.80;;
32242;SDS011;18731;42.830;24.390;2023-04-25T13:54:19;4.70;;;0.80;;
32242;SDS011;18731;42.830;24.390;2023-04-25T13:56:45;0.80;;;0.57;;
32242;SDS011;18731;42.830;24.390;2023-04-25T13:59:10;10.23;;;0.93;;
32242;SDS011;18731;42.830;24.390;2023-04-25T14:01:36;2.60;;;0.70;;
32242;SDS011;18731;42.830;24.390;2023-04-25T14:04:02;5.15;;;0.90;;
32242;SDS011;18731;42.830;24.390;2023-04-25T14:06:31;9.73;;;0.50;;
32242;SDS011;18731;42.830;24.390;2023-04-25T14:08:57;3.33;;;0.70;;
32242;SDS011;18731;42.830;24.390;2023-04-25T14:11:25;3.38;;;0.70;;
32242;SDS011;18731;42.830;24.390;2023-04-25T14:13:51;2.80;;;0.73;;
32242;SDS011;18731;42.830;24.390;2023-04-25T14:16:16;4.15;;;0.60;;
32242;SDS011;18731;42.830;24.390;2023-04-25T14:18:42;1.13;;;0.90;;
32242;SDS011;18731;42.830;24.390;2023-04-25T14:21:08;5.20;;;0.75;;
32242;SDS011;18731;42.830;24.390;2023-04-25T14:23:34;0.70;;;0.70;;
32242;SDS011;18731;42.830;24.390;2023-04-25T14:26:00;3.25;;;0.82;;
32242;SDS011;18731;42.830;24.390;2023-04-25T14:28:27;2.70;;;0.70;;
32242;SDS011;18731;42.830;24.390;2023-04-25T14:30:52;2.92;;;0.70;;
32242;SDS011;18731;42.830;24.390;2023-04-25T14:33:18;3.25;;;0.85;;
32242;SDS011;18731;42.830;24.390;2023-04-25T14:35:44;6.32;;;1.10;;
32242;SDS011;18731;42.830;24.390;2023-04-25T14:38:09;4.15;;;0.95;;
32242;SDS011;18731;42.830;24.390;2023-04-25T14:40:35;6.03;;;1.80;;
32242;SDS011;18731;42.830;24.390;2023-04-25T14:43:02;8.43;;;2.78;;
32242;SDS011;18731;42.830;24.390;2023-04-25T14:45:27;15.23;;;5.95;;
32242;SDS011;18731;42.830;24.390;2023-04-25T14:47:53;11.88;;;4.75;;
32242;SDS011;18731;42.830;24.390;2023-04-25T14:50:19;18.55;;;5.38;;
32242;SDS011;18731;42.830;24.390;2023-04-25T14:52:44;12.15;;;6.68;;
32242;SDS011;18731;42.830;24.390;2023-04-25T14:55:11;14.85;;;7.18;;
32242;SDS011;18731;42.830;24.390;2023-04-25T14:57:36;20.33;;;9.60;;
32242;SDS011;18731;42.830;24.390;2023-04-25T15:00:04;20.85;;;11.50;;
32242;SDS011;18731;42.830;24.390;2023-04-25T15:02:33;14.30;;;8.40;;
32242;SDS011;18731;42.830;24.390;2023-04-25T15:04:59;4.50;;;3.03;;
32242;SDS011;18731;42.830;24.390;2023-04-25T15:07:25;2.55;;;1.30;;
32242;SDS011;18731;42.830;24.390;2023-04-25T15:09:51;2.05;;;1.42;;
32242;SDS011;18731;42.830;24.390;2023-04-25T15:12:18;7.10;;;1.80;;
32242;SDS011;18731;42.830;24.390;2023-04-25T15:14:44;6.80;;;1.45;;
32242;SDS011;18731;42.830;24.390;2023-04-25T15:17:10;10.77;;;1.35;;
32242;SDS011;18731;42.830;24.390;2023-04-25T15:19:38;3.65;;;1.10;;
32242;SDS011;18731;42.830;24.390;2023-04-25T15:22:04;2.25;;;1.00;;
32242;SDS011;18731;42.830;24.390;2023-04-25T15:24:32;4.60;;;1.02;;
32242;SDS011;18731;42.830;24.390;2023-04-25T15:26:57;3.78;;;1.20;;
32242;SDS011;18731;42.830;24.390;2023-04-25T15:29:23;6.05;;;1.35;;
32242;SDS011;18731;42.830;24.390;2023-04-25T15:31:49;4.20;;;1.20;;
32242;SDS011;18731;42.830;24.390;2023-04-25T15:34:15;2.85;;;1.00;;
32242;SDS011;18731;42.830;24.390;2023-04-25T15:36:41;1.55;;;0.82;;
32242;SDS011;18731;42.830;24.390;2023-04-25T15:39:06;3.50;;;0.88;;
32242;SDS011;18731;42.830;24.390;2023-04-25T15:41:32;1.23;;;0.60;;
32242;SDS011;18731;42.830;24.390;2023-04-25T15:43:59;3.83;;;0.90;;
32242;SDS011;18731;42.830;24.390;2023-04-25T15:46:26;3.13;;;1.02;;
32242;SDS011;18731;42.830;24.390;2023-04-25T15:48:51;9.75;;;2.05;;
32242;SDS011;18731;42.830;24.390;2023-04-25T15:51:17;4.93;;;0.60;;
32242;SDS011;18731;42.830;24.390;2023-04-25T15:53:43;3.67;;;0.90;;
32242;SDS011;18731;42.830;24.390;2023-04-25T15:56:09;6.25;;;0.70;;
32242;SDS011;18731;42.830;24.390;2023-04-25T15:58:35;2.30;;;0.40;;
32242;SDS011;18731;42.830;24.390;2023-04-25T16:01:01;1.35;;;0.60;;
32242;SDS011;18731;42.830;24.390;2023-04-25T16:03:27;4.72;;;0.63;;
32242;SDS011;18731;42.830;24.390;2023-04-25T16:05:53;2.10;;;0.60;;
32242;SDS011;18731;42.830;24.390;2023-04-25T16:08:18;2.30;;;0.52;;
32242;SDS011;18731;42.830;24.390;2023-04-25T16:10:44;2.70;;;0.60;;
32242;SDS011;18731;42.830;24.390;2023-04-25T16:13:10;3.50;;;0.40;;
32242;SDS011;18731;42.830;24.390;2023-04-25T16:15:36;2.65;;;0.88;;
32242;SDS011;18731;42.830;24.390;2023-04-25T16:18:01;1.33;;;0.60;;
32242;SDS011;18731;42.830;24.390;2023-04-25T16:20:28;3.25;;;0.57;;
32242;SDS011;18731;42.830;24.390;2023-04-25T16:22:53;3.65;;;0.73;;
32242;SDS011;18731;42.830;24.390;2023-04-25T16:25:19;2.88;;;1.00;;
32242;SDS011;18731;42.830;24.390;2023-04-25T16:27:46;1.23;;;0.88;;
32242;SDS011;18731;42.830;24.390;2023-04-25T16:30:12;6.25;;;1.33;;
32242;SDS011;18731;42.830;24.390;2023-04-25T16:32:38;1.52;;;1.10;;
32242;SDS011;18731;42.830;24.390;2023-04-25T16:35:05;2.65;;;0.90;;
32242;SDS011;18731;42.830;24.390;2023-04-25T16:37:31;4.65;;;2.15;;
32242;SDS011;18731;42.830;24.390;2023-04-25T16:39:57;6.22;;;2.50;;
32242;SDS011;18731;42.830;24.390;2023-04-25T16:42:23;3.17;;;1.77;;
32242;SDS011;18731;42.830;24.390;2023-04-25T16:44:49;4.43;;;2.08;;
32242;SDS011;18731;42.830;24.390;2023-04-25T16:47:14;3.50;;;2.10;;
32242;SDS011;18731;42.830;24.390;2023-04-25T16:49:40;2.28;;;1.15;;
32242;SDS011;18731;42.830;24.390;2023-04-25T16:52:06;1.33;;;0.80;;
32242;SDS011;18731;42.830;24.390;2023-04-25T16:54:31;3.42;;;1.25;;
32242;SDS011;18731;42.830;24.390;2023-04-25T16:56:57;5.05;;;2.50;;
32242;SDS011;18731;42.830;24.390;2023-04-25T16:59:24;4.43;;;1.77;;
32242;SDS011;18731;42.830;24.390;2023-04-25T17:01:49;8.23;;;2.30;;
32242;SDS011;18731;42.830;24.390;2023-04-25T17:04:15;3.83;;;1.80;;
32242;SDS011;18731;42.830;24.390;2023-04-25T17:06:41;12.02;;;7.30;;
32242;SDS011;18731;42.830;24.390;2023-04-25T17:09:07;12.82;;;5.28;;
32242;SDS011;18731;42.830;24.390;2023-04-25T17:11:32;8.43;;;3.80;;
32242;SDS011;18731;42.830;24.390;2023-04-25T17:13:58;13.52;;;2.60;;
32242;SDS011;18731;42.830;24.390;2023-04-25T17:16:32;5.22;;;3.03;;
32242;SDS011;18731;42.830;24.390;2023-04-25T17:18:59;11.60;;;3.78;;
32242;SDS011;18731;42.830;24.390;2023-04-25T17:21:25;4.85;;;2.78;;
32242;SDS011;18731;42.830;24.390;2023-04-25T17:23:50;7.75;;;2.20;;
32242;SDS011;18731;42.830;24.390;2023-04-25T17:26:16;9.52;;;4.40;;
32242;SDS011;18731;42.830;24.390;2023-04-25T17:28:42;7.82;;;3.72;;
32242;SDS011;18731;42.830;24.390;2023-04-25T17:31:13;4.45;;;2.90;;
32242;SDS011;18731;42.830;24.390;2023-04-25T17:33:40;5.43;;;3.08;;
32242;SDS011;18731;42.830;24.390;2023-04-25T17:36:05;8.95;;;3.25;;
32242;SDS011;18731;42.830;24.390;2023-04-25T17:38:31;5.40;;;3.97;;
32242;SDS011;18731;42.830;24.390;2023-04-25T17:40:58;9.65;;;3.92;;
32242;SDS011;18731;42.830;24.390;2023-04-25T17:43:24;7.05;;;4.47;;
32242;SDS011;18731;42.830;24.390;2023-04-25T17:45:51;7.82;;;3.47;;